sensor_id;sensor_type;location;lat;lon;timestamp;P1;durP1;ratioP1;P2;durP2;ratioP2
44348;SDS011;30068;50.986;4.564;2023-01-08T00:00:46;3.83;;;1.23;;
44348;SDS011;30068;50.986;4.564;2023-01-08T00:03:12;3.47;;;1.13;;
44348;SDS011;30068;50.986;4.564;2023-01-08T00:05:37;3.17;;;1.10;;
44348;SDS011;30068;50.986;4.564;2023-01-08T00:08:03;4.35;;;1.33;;
44348;SDS011;30068;50.986;4.564;2023-01-08T00:10:29;4.68;;;1.30;;
44348;SDS011;30068;50.986;4.564;2023-01-08T00:12:54;4.18;;;1.23;;
44348;SDS011;30068;50.986;4.564;2023-01-08T00:15:20;3.08;;;1.25;;
44348;SDS011;30068;50.986;4.564;2023-01-08T00:17:46;4.55;;;1.25;;
44348;SDS011;30068;50.986;4.564;2023-01-08T00:20:12;4.28;;;1.50;;
44348;SDS011;30068;50.986;4.564;2023-01-08T00:22:37;3.97;;;1.20;;
44348;SDS011;30068;50.986;4.564;2023-01-08T00:25:03;4.85;;;1.10;;
44348;SDS011;30068;50.986;4.564;2023-01-08T00:27:29;5.43;;;1.10;;
44348;SDS011;30068;50.986;4.564;2023-01-08T00:29:54;3.45;;;1.25;;
44348;SDS011;30068;50.986;4.564;2023-01-08T00:32:19;3.75;;;1.05;;
44348;SDS011;30068;50.986;4.564;2023-01-08T00:34:45;3.83;;;0.90;;
44348;SDS011;30068;50.986;4.564;2023-01-08T00:37:10;3.10;;;1.05;;
44348;SDS011;30068;50.986;4.564;2023-01-08T00:39:35;5.18;;;1.10;;
44348;SDS011;30068;50.986;4.564;2023-01-08T00:42:01;2.85;;;0.98;;
44348;SDS011;30068;50.986;4.564;2023-01-08T00:44:26;3.83;;;1.33;;
44348;SDS011;30068;50.986;4.564;2023-01-08T00:46:51;4.60;;;0.90;;
44348;SDS011;30068;50.986;4.564;2023-01-08T00:49:17;3.85;;;0.80;;
44348;SDS011;30068;50.986;4.564;2023-01-08T00:51:42;2.50;;;0.75;;
44348;SDS011;30068;50.986;4.564;2023-01-08T00:54:08;2.53;;;0.80;;
44348;SDS011;30068;50.986;4.564;2023-01-08T00:56:35;2.15;;;0.70;;
44348;SDS011;30068;50.986;4.564;2023-01-08T00:59:00;2.85;;;0.90;;
44348;SDS011;30068;50.986;4.564;2023-01-08T01:01:25;2.03;;;0.60;;
44348;SDS011;30068;50.986;4.564;2023-01-08T01:03:51;4.18;;;0.88;;
44348;SDS011;30068;50.986;4.564;2023-01-08T01:06:16;2.90;;;0.65;;
44348;SDS011;30068;50.986;4.564;2023-01-08T01:08:41;3.08;;;0.80;;
44348;SDS011;30068;50.986;4.564;2023-01-08T01:11:10;2.55;;;0.80;;
44348;SDS011;30068;50.986;4.564;2023-01-08T01:13:41;3.78;;;0.70;;
44348;SDS011;30068;50.986;4.564;2023-01-08T01:16:07;3.15;;;0.60;;
44348;SDS011;30068;50.986;4.564;2023-01-08T01:18:32;2.55;;;0.65;;
44348;SDS011;30068;50.986;4.564;2023-01-08T01:20:58;2.40;;;0.60;;
44348;SDS011;30068;50.986;4.564;2023-01-08T01:23:24;3.75;;;0.80;;
44348;SDS011;30068;50.986;4.564;2023-01-08T01:25:49;2.55;;;0.60;;
44348;SDS011;30068;50.986;4.564;2023-01-08T01:28:15;5.95;;;0.82;;
44348;SDS011;30068;50.986;4.564;2023-01-08T01:30:40;3.10;;;0.90;;
44348;SDS011;30068;50.986;4.564;2023-01-08T01:33:06;2.58;;;0.50;;
44348;SDS011;30068;50.986;4.564;2023-01-08T01:35:31;2.70;;;0.70;;
44348;SDS011;30068;50.986;4.564;2023-01-08T01:37:56;2.85;;;0.63;;
44348;SDS011;30068;50.986;4.564;2023-01-08T01:40:22;2.17;;;0.55;;
44348;SDS011;30068;50.986;4.564;2023-01-08T01:42:47;2.33;;;0.70;;
44348;SDS011;30068;50.986;4.564;2023-01-08T01:45:17;2.42;;;0.70;;
44348;SDS011;30068;50.986;4.564;2023-01-08T01:50:19;2.88;;;0.73;;
44348;SDS011;30068;50.986;4.564;2023-01-08T01:55:36;3.47;;;0.80;;
44348;SDS011;30068;50.986;4.564;2023-01-08T01:58:10;2.65;;;0.60;;
44348;SDS011;30068;50.986;4.564;2023-01-08T02:00:39;2.05;;;0.77;;
44348;SDS011;30068;50.986;4.564;2023-01-08T02:03:05;1.42;;;0.50;;
44348;SDS011;30068;50.986;4.564;2023-01-08T02:11:18;2.03;;;0.60;;
44348;SDS011;30068;50.986;4.564;2023-01-08T02:13:45;2.35;;;0.60;;
44348;SDS011;30068;50.986;4.564;2023-01-08T02:16:39;2.15;;;0.43;;
44348;SDS011;30068;50.986;4.564;2023-01-08T02:19:10;1.65;;;0.50;;
44348;SDS011;30068;50.986;4.564;2023-01-08T02:21:46;1.40;;;0.35;;
44348;SDS011;30068;50.986;4.564;2023-01-08T02:24:47;1.88;;;0.60;;
44348;SDS011;30068;50.986;4.564;2023-01-08T02:27:20;2.03;;;0.70;;
44348;SDS011;30068;50.986;4.564;2023-01-08T02:29:48;2.25;;;0.50;;
44348;SDS011;30068;50.986;4.564;2023-01-08T02:32:16;2.58;;;0.50;;
44348;SDS011;30068;50.986;4.564;2023-01-08T02:34:41;2.92;;;0.60;;
44348;SDS011;30068;50.986;4.564;2023-01-08T02:37:07;2.25;;;0.52;;
44348;SDS011;30068;50.986;4.564;2023-01-08T02:47:24;2.05;;;0.70;;
44348;SDS011;30068;50.986;4.564;2023-01-08T02:53:09;2.55;;;0.63;;
44348;SDS011;30068;50.986;4.564;2023-01-08T02:55:40;4.07;;;0.82;;
44348;SDS011;30068;50.986;4.564;2023-01-08T02:58:09;2.63;;;0.60;;
44348;SDS011;30068;50.986;4.564;2023-01-08T03:00:35;2.70;;;0.80;;
44348;SDS011;30068;50.986;4.564;2023-01-08T03:03:09;2.72;;;0.88;;
44348;SDS011;30068;50.986;4.564;2023-01-08T03:05:36;5.55;;;0.88;;
44348;SDS011;30068;50.986;4.564;2023-01-08T03:08:05;2.70;;;0.70;;
44348;SDS011;30068;50.986;4.564;2023-01-08T03:10:32;3.83;;;0.85;;
44348;SDS011;30068;50.986;4.564;2023-01-08T03:13:01;2.90;;;1.00;;
44348;SDS011;30068;50.986;4.564;2023-01-08T03:15:37;2.50;;;0.50;;
44348;SDS011;30068;50.986;4.564;2023-01-08T03:18:11;3.00;;;0.70;;
44348;SDS011;30068;50.986;4.564;2023-01-08T03:20:39;4.07;;;0.90;;
44348;SDS011;30068;50.986;4.564;2023-01-08T03:23:06;1.98;;;0.68;;
44348;SDS011;30068;50.986;4.564;2023-01-08T03:25:36;2.75;;;0.77;;
44348;SDS011;30068;50.986;4.564;2023-01-08T03:28:04;2.05;;;0.52;;
44348;SDS011;30068;50.986;4.564;2023-01-08T03:30:34;4.30;;;0.80;;
44348;SDS011;30068;50.986;4.564;2023-01-08T03:33:03;2.42;;;0.60;;
44348;SDS011;30068;50.986;4.564;2023-01-08T03:35:32;2.28;;;0.70;;
44348;SDS011;30068;50.986;4.564;2023-01-08T03:38:03;2.33;;;0.52;;
44348;SDS011;30068;50.986;4.564;2023-01-08T03:40:39;2.65;;;0.70;;
44348;SDS011;30068;50.986;4.564;2023-01-08T03:43:09;1.80;;;0.63;;
44348;SDS011;30068;50.986;4.564;2023-01-08T03:45:35;4.05;;;0.80;;
44348;SDS011;30068;50.986;4.564;2023-01-08T03:48:02;3.13;;;0.73;;
44348;SDS011;30068;50.986;4.564;2023-01-08T03:50:29;2.40;;;0.70;;
44348;SDS011;30068;50.986;4.564;2023-01-08T03:52:56;2.97;;;0.70;;
44348;SDS011;30068;50.986;4.564;2023-01-08T03:55:21;2.45;;;0.70;;
44348;SDS011;30068;50.986;4.564;2023-01-08T03:57:46;2.28;;;0.70;;
44348;SDS011;30068;50.986;4.564;2023-01-08T04:00:12;3.25;;;0.73;;
44348;SDS011;30068;50.986;4.564;2023-01-08T04:02:38;3.78;;;0.70;;
44348;SDS011;30068;50.986;4.564;2023-01-08T04:05:03;3.88;;;0.85;;
44348;SDS011;30068;50.986;4.564;2023-01-08T04:07:28;2.78;;;0.80;;
44348;SDS011;30068;50.986;4.564;2023-01-08T04:09:54;2.05;;;0.70;;
44348;SDS011;30068;50.986;4.564;2023-01-08T04:12:19;3.65;;;1.10;;
44348;SDS011;30068;50.986;4.564;2023-01-08T04:14:44;3.50;;;0.73;;
44348;SDS011;30068;50.986;4.564;2023-01-08T04:17:10;3.10;;;0.80;;
44348;SDS011;30068;50.986;4.564;2023-01-08T04:19:36;4.15;;;1.10;;
44348;SDS011;30068;50.986;4.564;2023-01-08T04:22:01;4.07;;;0.95;;
44348;SDS011;30068;50.986;4.564;2023-01-08T04:24:26;3.83;;;1.27;;
44348;SDS011;30068;50.986;4.564;2023-01-08T04:26:51;2.80;;;0.80;;
44348;SDS011;30068;50.986;4.564;2023-01-08T04:29:17;3.50;;;1.00;;
44348;SDS011;30068;50.986;4.564;2023-01-08T04:31:42;3.53;;;0.90;;
44348;SDS011;30068;50.986;4.564;2023-01-08T04:34:08;3.10;;;0.77;;
44348;SDS011;30068;50.986;4.564;2023-01-08T04:36:34;3.17;;;0.80;;
44348;SDS011;30068;50.986;4.564;2023-01-08T04:38:59;2.97;;;0.80;;
44348;SDS011;30068;50.986;4.564;2023-01-08T04:41:25;3.15;;;0.88;;
44348;SDS011;30068;50.986;4.564;2023-01-08T04:43:50;3.35;;;0.90;;
44348;SDS011;30068;50.986;4.564;2023-01-08T04:46:15;3.75;;;1.00;;
44348;SDS011;30068;50.986;4.564;2023-01-08T04:48:40;2.60;;;0.88;;
44348;SDS011;30068;50.986;4.564;2023-01-08T04:51:06;4.03;;;0.93;;
44348;SDS011;30068;50.986;4.564;2023-01-08T04:53:35;3.20;;;1.00;;
44348;SDS011;30068;50.986;4.564;2023-01-08T04:56:02;3.80;;;0.98;;
44348;SDS011;30068;50.986;4.564;2023-01-08T04:58:28;3.83;;;1.10;;
44348;SDS011;30068;50.986;4.564;2023-01-08T05:00:53;2.88;;;0.90;;
44348;SDS011;30068;50.986;4.564;2023-01-08T05:03:19;4.03;;;0.98;;
44348;SDS011;30068;50.986;4.564;2023-01-08T05:05:44;3.70;;;0.85;;
44348;SDS011;30068;50.986;4.564;2023-01-08T05:08:09;3.45;;;0.90;;
44348;SDS011;30068;50.986;4.564;2023-01-08T05:10:34;3.42;;;0.77;;
44348;SDS011;30068;50.986;4.564;2023-01-08T05:13:00;3.42;;;0.82;;
44348;SDS011;30068;50.986;4.564;2023-01-08T05:15:25;4.45;;;0.90;;
44348;SDS011;30068;50.986;4.564;2023-01-08T05:18:01;2.90;;;0.73;;
44348;SDS011;30068;50.986;4.564;2023-01-08T05:20:28;3.33;;;0.90;;
44348;SDS011;30068;50.986;4.564;2023-01-08T05:22:54;4.28;;;0.82;;
44348;SDS011;30068;50.986;4.564;2023-01-08T05:25:20;3.53;;;0.88;;
44348;SDS011;30068;50.986;4.564;2023-01-08T05:27:46;2.78;;;0.80;;
44348;SDS011;30068;50.986;4.564;2023-01-08T05:30:11;2.40;;;0.70;;
44348;SDS011;30068;50.986;4.564;2023-01-08T05:32:37;3.22;;;1.00;;
44348;SDS011;30068;50.986;4.564;2023-01-08T05:35:02;4.72;;;0.70;;
44348;SDS011;30068;50.986;4.564;2023-01-08T05:37:28;5.38;;;1.52;;
44348;SDS011;30068;50.986;4.564;2023-01-08T05:39:53;3.20;;;0.70;;
44348;SDS011;30068;50.986;4.564;2023-01-08T05:42:18;4.28;;;0.80;;
44348;SDS011;30068;50.986;4.564;2023-01-08T05:44:44;4.20;;;1.10;;
44348;SDS011;30068;50.986;4.564;2023-01-08T05:47:09;5.00;;;0.90;;
44348;SDS011;30068;50.986;4.564;2023-01-08T05:49:34;4.65;;;1.05;;
44348;SDS011;30068;50.986;4.564;2023-01-08T05:51:59;4.32;;;1.00;;
44348;SDS011;30068;50.986;4.564;2023-01-08T05:54:25;3.15;;;0.82;;
44348;SDS011;30068;50.986;4.564;2023-01-08T05:56:50;3.80;;;1.00;;
44348;SDS011;30068;50.986;4.564;2023-01-08T05:59:15;4.15;;;1.10;;
44348;SDS011;30068;50.986;4.564;2023-01-08T06:01:41;4.53;;;1.05;;
44348;SDS011;30068;50.986;4.564;2023-01-08T06:04:06;3.65;;;1.17;;
44348;SDS011;30068;50.986;4.564;2023-01-08T06:06:31;4.50;;;0.95;;
44348;SDS011;30068;50.986;4.564;2023-01-08T06:08:57;6.00;;;1.10;;
44348;SDS011;30068;50.986;4.564;2023-01-08T06:11:22;3.78;;;1.10;;
44348;SDS011;30068;50.986;4.564;2023-01-08T06:13:48;6.07;;;1.20;;
44348;SDS011;30068;50.986;4.564;2023-01-08T06:16:13;5.88;;;1.13;;
44348;SDS011;30068;50.986;4.564;2023-01-08T06:18:38;4.38;;;1.15;;
44348;SDS011;30068;50.986;4.564;2023-01-08T06:21:04;4.90;;;1.10;;
44348;SDS011;30068;50.986;4.564;2023-01-08T06:23:32;3.75;;;1.00;;
44348;SDS011;30068;50.986;4.564;2023-01-08T06:25:58;4.10;;;1.00;;
44348;SDS011;30068;50.986;4.564;2023-01-08T06:28:25;3.78;;;0.98;;
44348;SDS011;30068;50.986;4.564;2023-01-08T06:30:51;7.13;;;1.25;;
44348;SDS011;30068;50.986;4.564;2023-01-08T06:33:17;4.63;;;1.05;;
44348;SDS011;30068;50.986;4.564;2023-01-08T06:35:43;4.05;;;0.93;;
44348;SDS011;30068;50.986;4.564;2023-01-08T06:38:08;3.72;;;1.05;;
44348;SDS011;30068;50.986;4.564;2023-01-08T06:40:34;3.88;;;0.88;;
44348;SDS011;30068;50.986;4.564;2023-01-08T06:43:02;4.03;;;0.90;;
44348;SDS011;30068;50.986;4.564;2023-01-08T06:45:29;4.93;;;1.02;;
44348;SDS011;30068;50.986;4.564;2023-01-08T06:47:58;3.08;;;0.82;;
44348;SDS011;30068;50.986;4.564;2023-01-08T06:50:25;3.65;;;0.90;;
44348;SDS011;30068;50.986;4.564;2023-01-08T06:52:51;4.15;;;1.02;;
44348;SDS011;30068;50.986;4.564;2023-01-08T06:55:20;5.82;;;0.98;;
44348;SDS011;30068;50.986;4.564;2023-01-08T06:57:47;3.58;;;0.90;;
44348;SDS011;30068;50.986;4.564;2023-01-08T07:00:12;3.20;;;0.90;;
44348;SDS011;30068;50.986;4.564;2023-01-08T07:02:38;4.45;;;0.90;;
44348;SDS011;30068;50.986;4.564;2023-01-08T07:05:03;3.20;;;0.70;;
44348;SDS011;30068;50.986;4.564;2023-01-08T07:07:29;2.45;;;0.60;;
44348;SDS011;30068;50.986;4.564;2023-01-08T07:09:54;4.70;;;0.98;;
44348;SDS011;30068;50.986;4.564;2023-01-08T07:12:20;3.25;;;0.70;;
44348;SDS011;30068;50.986;4.564;2023-01-08T07:14:45;3.55;;;0.85;;
44348;SDS011;30068;50.986;4.564;2023-01-08T07:17:10;3.53;;;0.93;;
44348;SDS011;30068;50.986;4.564;2023-01-08T07:19:36;2.67;;;0.60;;
44348;SDS011;30068;50.986;4.564;2023-01-08T07:22:01;2.40;;;0.68;;
44348;SDS011;30068;50.986;4.564;2023-01-08T07:24:27;3.97;;;0.70;;
44348;SDS011;30068;50.986;4.564;2023-01-08T07:26:52;2.47;;;0.70;;
44348;SDS011;30068;50.986;4.564;2023-01-08T07:29:18;3.58;;;1.00;;
44348;SDS011;30068;50.986;4.564;2023-01-08T07:31:43;3.83;;;0.68;;
44348;SDS011;30068;50.986;4.564;2023-01-08T07:34:08;3.20;;;0.65;;
44348;SDS011;30068;50.986;4.564;2023-01-08T07:36:34;3.05;;;0.90;;
44348;SDS011;30068;50.986;4.564;2023-01-08T07:39:00;4.55;;;0.70;;
44348;SDS011;30068;50.986;4.564;2023-01-08T07:41:25;2.50;;;0.70;;
44348;SDS011;30068;50.986;4.564;2023-01-08T07:43:50;4.18;;;0.70;;
44348;SDS011;30068;50.986;4.564;2023-01-08T07:46:16;4.75;;;0.75;;
44348;SDS011;30068;50.986;4.564;2023-01-08T07:48:41;2.83;;;0.50;;
44348;SDS011;30068;50.986;4.564;2023-01-08T07:51:07;3.65;;;0.73;;
44348;SDS011;30068;50.986;4.564;2023-01-08T07:53:33;2.10;;;0.65;;
44348;SDS011;30068;50.986;4.564;2023-01-08T07:56:00;2.03;;;0.60;;
44348;SDS011;30068;50.986;4.564;2023-01-08T07:58:32;1.98;;;0.60;;
44348;SDS011;30068;50.986;4.564;2023-01-08T08:00:58;3.45;;;0.93;;
44348;SDS011;30068;50.986;4.564;2023-01-08T08:03:24;2.65;;;0.68;;
44348;SDS011;30068;50.986;4.564;2023-01-08T08:05:50;3.80;;;0.60;;
44348;SDS011;30068;50.986;4.564;2023-01-08T08:08:16;3.15;;;0.70;;
44348;SDS011;30068;50.986;4.564;2023-01-08T08:10:42;3.03;;;0.68;;
44348;SDS011;30068;50.986;4.564;2023-01-08T08:13:08;2.88;;;0.60;;
44348;SDS011;30068;50.986;4.564;2023-01-08T08:15:34;3.50;;;0.70;;
44348;SDS011;30068;50.986;4.564;2023-01-08T08:18:01;1.85;;;0.47;;
44348;SDS011;30068;50.986;4.564;2023-01-08T08:20:26;4.43;;;0.88;;
44348;SDS011;30068;50.986;4.564;2023-01-08T08:22:58;3.10;;;0.70;;
44348;SDS011;30068;50.986;4.564;2023-01-08T08:25:27;6.30;;;1.00;;
44348;SDS011;30068;50.986;4.564;2023-01-08T08:27:54;3.67;;;0.60;;
44348;SDS011;30068;50.986;4.564;2023-01-08T08:30:21;2.97;;;0.80;;
44348;SDS011;30068;50.986;4.564;2023-01-08T08:32:47;3.65;;;0.60;;
44348;SDS011;30068;50.986;4.564;2023-01-08T08:35:12;4.10;;;0.65;;
44348;SDS011;30068;50.986;4.564;2023-01-08T08:37:37;3.80;;;0.90;;
44348;SDS011;30068;50.986;4.564;2023-01-08T08:40:03;2.75;;;0.60;;
44348;SDS011;30068;50.986;4.564;2023-01-08T08:42:29;3.03;;;0.77;;
44348;SDS011;30068;50.986;4.564;2023-01-08T08:44:54;3.30;;;0.57;;
44348;SDS011;30068;50.986;4.564;2023-01-08T08:47:19;3.42;;;0.57;;
44348;SDS011;30068;50.986;4.564;2023-01-08T08:49:44;3.28;;;0.70;;
44348;SDS011;30068;50.986;4.564;2023-01-08T08:52:10;2.75;;;0.73;;
44348;SDS011;30068;50.986;4.564;2023-01-08T08:54:35;3.40;;;0.60;;
44348;SDS011;30068;50.986;4.564;2023-01-08T08:57:05;2.13;;;0.60;;
44348;SDS011;30068;50.986;4.564;2023-01-08T08:59:30;3.40;;;0.85;;
44348;SDS011;30068;50.986;4.564;2023-01-08T09:01:55;3.40;;;0.80;;
44348;SDS011;30068;50.986;4.564;2023-01-08T09:04:22;2.45;;;0.80;;
44348;SDS011;30068;50.986;4.564;2023-01-08T09:06:47;3.65;;;0.85;;
44348;SDS011;30068;50.986;4.564;2023-01-08T09:09:12;4.53;;;0.60;;
44348;SDS011;30068;50.986;4.564;2023-01-08T09:11:39;3.47;;;0.60;;
44348;SDS011;30068;50.986;4.564;2023-01-08T09:14:05;3.33;;;0.60;;
44348;SDS011;30068;50.986;4.564;2023-01-08T09:16:30;1.85;;;0.50;;
44348;SDS011;30068;50.986;4.564;2023-01-08T09:18:57;2.60;;;0.65;;
44348;SDS011;30068;50.986;4.564;2023-01-08T09:21:22;2.20;;;0.40;;
44348;SDS011;30068;50.986;4.564;2023-01-08T09:23:48;2.03;;;0.50;;
44348;SDS011;30068;50.986;4.564;2023-01-08T09:26:13;2.97;;;0.50;;
44348;SDS011;30068;50.986;4.564;2023-01-08T09:28:39;2.70;;;0.60;;
44348;SDS011;30068;50.986;4.564;2023-01-08T09:31:04;2.53;;;0.60;;
44348;SDS011;30068;50.986;4.564;2023-01-08T09:33:30;1.83;;;0.50;;
44348;SDS011;30068;50.986;4.564;2023-01-08T09:35:55;2.92;;;0.50;;
44348;SDS011;30068;50.986;4.564;2023-01-08T09:38:21;1.40;;;0.40;;
44348;SDS011;30068;50.986;4.564;2023-01-08T09:40:56;2.28;;;0.50;;
44348;SDS011;30068;50.986;4.564;2023-01-08T09:43:25;1.45;;;0.50;;
44348;SDS011;30068;50.986;4.564;2023-01-08T09:45:55;3.13;;;0.65;;
44348;SDS011;30068;50.986;4.564;2023-01-08T09:48:24;2.58;;;0.65;;
44348;SDS011;30068;50.986;4.564;2023-01-08T09:50:52;2.80;;;0.70;;
44348;SDS011;30068;50.986;4.564;2023-01-08T09:53:18;2.60;;;0.50;;
44348;SDS011;30068;50.986;4.564;2023-01-08T09:55:44;1.95;;;0.40;;
44348;SDS011;30068;50.986;4.564;2023-01-08T09:58:36;2.47;;;0.68;;
44348;SDS011;30068;50.986;4.564;2023-01-08T10:01:03;3.70;;;0.93;;
44348;SDS011;30068;50.986;4.564;2023-01-08T10:03:37;2.25;;;0.60;;
44348;SDS011;30068;50.986;4.564;2023-01-08T10:06:12;2.42;;;0.55;;
44348;SDS011;30068;50.986;4.564;2023-01-08T10:08:38;1.42;;;0.40;;
44348;SDS011;30068;50.986;4.564;2023-01-08T10:11:04;1.23;;;0.40;;
44348;SDS011;30068;50.986;4.564;2023-01-08T10:13:32;1.52;;;0.40;;
44348;SDS011;30068;50.986;4.564;2023-01-08T10:16:01;1.58;;;0.50;;
44348;SDS011;30068;50.986;4.564;2023-01-08T10:18:30;1.02;;;0.30;;
44348;SDS011;30068;50.986;4.564;2023-01-08T10:20:57;3.22;;;0.60;;
44348;SDS011;30068;50.986;4.564;2023-01-08T10:23:22;1.48;;;0.40;;
44348;SDS011;30068;50.986;4.564;2023-01-08T10:25:53;2.45;;;0.60;;
44348;SDS011;30068;50.986;4.564;2023-01-08T10:28:30;3.20;;;0.40;;
44348;SDS011;30068;50.986;4.564;2023-01-08T10:31:03;2.05;;;0.50;;
44348;SDS011;30068;50.986;4.564;2023-01-08T10:33:45;0.95;;;0.30;;
44348;SDS011;30068;50.986;4.564;2023-01-08T10:36:13;3.45;;;0.60;;
44348;SDS011;30068;50.986;4.564;2023-01-08T10:38:51;1.92;;;0.47;;
44348;SDS011;30068;50.986;4.564;2023-01-08T10:41:21;1.63;;;0.40;;
44348;SDS011;30068;50.986;4.564;2023-01-08T10:43:57;1.20;;;0.40;;
44348;SDS011;30068;50.986;4.564;2023-01-08T10:49:16;1.38;;;0.30;;
44348;SDS011;30068;50.986;4.564;2023-01-08T10:51:49;1.08;;;0.30;;
44348;SDS011;30068;50.986;4.564;2023-01-08T10:54:49;2.10;;;0.40;;
44348;SDS011;30068;50.986;4.564;2023-01-08T10:57:18;1.45;;;0.40;;
44348;SDS011;30068;50.986;4.564;2023-01-08T10:59:45;0.90;;;0.30;;
44348;SDS011;30068;50.986;4.564;2023-01-08T11:02:18;2.13;;;0.55;;
44348;SDS011;30068;50.986;4.564;2023-01-08T11:04:54;1.20;;;0.43;;
44348;SDS011;30068;50.986;4.564;2023-01-08T11:07:20;1.95;;;0.47;;
44348;SDS011;30068;50.986;4.564;2023-01-08T11:09:48;3.53;;;0.90;;
44348;SDS011;30068;50.986;4.564;2023-01-08T11:12:36;2.83;;;0.43;;
44348;SDS011;30068;50.986;4.564;2023-01-08T11:17:41;1.23;;;0.40;;
44348;SDS011;30068;50.986;4.564;2023-01-08T11:20:09;2.55;;;0.50;;
44348;SDS011;30068;50.986;4.564;2023-01-08T11:22:44;1.65;;;0.40;;
44348;SDS011;30068;50.986;4.564;2023-01-08T11:25:13;3.20;;;0.40;;
44348;SDS011;30068;50.986;4.564;2023-01-08T11:27:54;1.73;;;0.40;;
44348;SDS011;30068;50.986;4.564;2023-01-08T11:30:22;6.65;;;0.70;;
44348;SDS011;30068;50.986;4.564;2023-01-08T11:33:07;5.10;;;0.93;;
44348;SDS011;30068;50.986;4.564;2023-01-08T11:38:46;4.70;;;0.93;;
44348;SDS011;30068;50.986;4.564;2023-01-08T11:41:15;3.13;;;0.60;;
44348;SDS011;30068;50.986;4.564;2023-01-08T11:43:57;5.80;;;1.08;;
44348;SDS011;30068;50.986;4.564;2023-01-08T11:55:14;7.28;;;0.70;;
44348;SDS011;30068;50.986;4.564;2023-01-08T12:09:07;4.47;;;1.40;;
44348;SDS011;30068;50.986;4.564;2023-01-08T12:12:00;6.20;;;1.13;;
44348;SDS011;30068;50.986;4.564;2023-01-08T12:28:30;6.75;;;1.27;;
44348;SDS011;30068;50.986;4.564;2023-01-08T12:33:52;5.40;;;1.25;;
44348;SDS011;30068;50.986;4.564;2023-01-08T12:36:28;3.45;;;1.13;;
44348;SDS011;30068;50.986;4.564;2023-01-08T12:39:04;6.18;;;1.10;;
44348;SDS011;30068;50.986;4.564;2023-01-08T12:41:35;3.60;;;1.08;;
44348;SDS011;30068;50.986;4.564;2023-01-08T12:44:04;3.35;;;0.90;;
44348;SDS011;30068;50.986;4.564;2023-01-08T12:46:35;4.65;;;1.00;;
44348;SDS011;30068;50.986;4.564;2023-01-08T12:49:03;4.20;;;0.90;;
44348;SDS011;30068;50.986;4.564;2023-01-08T12:56:52;4.78;;;0.90;;
44348;SDS011;30068;50.986;4.564;2023-01-08T12:59:45;3.40;;;0.90;;
44348;SDS011;30068;50.986;4.564;2023-01-08T13:04:46;2.92;;;0.45;;
44348;SDS011;30068;50.986;4.564;2023-01-08T13:07:20;1.95;;;0.80;;
44348;SDS011;30068;50.986;4.564;2023-01-08T13:09:56;2.42;;;0.65;;
44348;SDS011;30068;50.986;4.564;2023-01-08T13:12:39;3.72;;;0.70;;
44348;SDS011;30068;50.986;4.564;2023-01-08T13:15:16;3.17;;;0.70;;
44348;SDS011;30068;50.986;4.564;2023-01-08T13:17:47;2.75;;;0.70;;
44348;SDS011;30068;50.986;4.564;2023-01-08T13:20:18;3.17;;;0.80;;
44348;SDS011;30068;50.986;4.564;2023-01-08T13:22:51;3.15;;;0.70;;
44348;SDS011;30068;50.986;4.564;2023-01-08T13:27:46;3.85;;;0.85;;
44348;SDS011;30068;50.986;4.564;2023-01-08T13:33:22;2.92;;;0.60;;
44348;SDS011;30068;50.986;4.564;2023-01-08T13:35:50;2.70;;;0.70;;
44348;SDS011;30068;50.986;4.564;2023-01-08T13:38:17;3.58;;;0.60;;
44348;SDS011;30068;50.986;4.564;2023-01-08T13:48:23;2.78;;;0.60;;
44348;SDS011;30068;50.986;4.564;2023-01-08T13:50:51;5.00;;;0.75;;
44348;SDS011;30068;50.986;4.564;2023-01-08T13:53:17;2.92;;;0.60;;
44348;SDS011;30068;50.986;4.564;2023-01-08T13:56:26;3.15;;;0.70;;
44348;SDS011;30068;50.986;4.564;2023-01-08T13:58:37;2.10;;;0.50;;
44348;SDS011;30068;50.986;4.564;2023-01-08T14:01:09;2.25;;;0.50;;
44348;SDS011;30068;50.986;4.564;2023-01-08T14:03:42;4.15;;;0.60;;
44348;SDS011;30068;50.986;4.564;2023-01-08T14:08:35;2.60;;;0.55;;
44348;SDS011;30068;50.986;4.564;2023-01-08T14:11:01;2.88;;;0.55;;
44348;SDS011;30068;50.986;4.564;2023-01-08T14:13:28;2.55;;;0.50;;
44348;SDS011;30068;50.986;4.564;2023-01-08T14:15:56;2.72;;;0.50;;
44348;SDS011;30068;50.986;4.564;2023-01-08T14:18:25;1.95;;;0.57;;
44348;SDS011;30068;50.986;4.564;2023-01-08T14:20:52;2.03;;;0.40;;
44348;SDS011;30068;50.986;4.564;2023-01-08T14:23:22;3.28;;;0.43;;
44348;SDS011;30068;50.986;4.564;2023-01-08T14:25:51;3.25;;;0.50;;
44348;SDS011;30068;50.986;4.564;2023-01-08T14:28:18;2.70;;;0.60;;
44348;SDS011;30068;50.986;4.564;2023-01-08T14:30:52;2.60;;;0.50;;
44348;SDS011;30068;50.986;4.564;2023-01-08T14:33:27;1.83;;;0.50;;
44348;SDS011;30068;50.986;4.564;2023-01-08T14:35:56;2.70;;;0.50;;
44348;SDS011;30068;50.986;4.564;2023-01-08T14:38:23;2.50;;;0.50;;
44348;SDS011;30068;50.986;4.564;2023-01-08T14:43:25;2.53;;;0.50;;
44348;SDS011;30068;50.986;4.564;2023-01-08T14:45:51;1.52;;;0.40;;
44348;SDS011;30068;50.986;4.564;2023-01-08T14:48:28;1.80;;;0.60;;
44348;SDS011;30068;50.986;4.564;2023-01-08T14:51:08;2.80;;;0.70;;
44348;SDS011;30068;50.986;4.564;2023-01-08T14:53:40;3.42;;;0.52;;
44348;SDS011;30068;50.986;4.564;2023-01-08T14:56:11;2.20;;;0.40;;
44348;SDS011;30068;50.986;4.564;2023-01-08T14:58:39;2.83;;;0.73;;
44348;SDS011;30068;50.986;4.564;2023-01-08T15:01:21;1.83;;;0.50;;
44348;SDS011;30068;50.986;4.564;2023-01-08T15:03:49;2.95;;;0.50;;
44348;SDS011;30068;50.986;4.564;2023-01-08T15:06:26;2.22;;;0.43;;
44348;SDS011;30068;50.986;4.564;2023-01-08T15:08:53;5.78;;;0.60;;
44348;SDS011;30068;50.986;4.564;2023-01-08T15:11:31;3.45;;;0.40;;
44348;SDS011;30068;50.986;4.564;2023-01-08T15:14:13;4.75;;;0.60;;
44348;SDS011;30068;50.986;4.564;2023-01-08T15:16:39;2.30;;;0.60;;
44348;SDS011;30068;50.986;4.564;2023-01-08T15:19:10;3.90;;;0.50;;
44348;SDS011;30068;50.986;4.564;2023-01-08T15:21:44;2.95;;;0.60;;
44348;SDS011;30068;50.986;4.564;2023-01-08T15:24:21;3.35;;;0.60;;
44348;SDS011;30068;50.986;4.564;2023-01-08T15:26:49;1.75;;;0.47;;
44348;SDS011;30068;50.986;4.564;2023-01-08T15:29:26;2.80;;;0.70;;
44348;SDS011;30068;50.986;4.564;2023-01-08T15:32:07;1.83;;;0.55;;
44348;SDS011;30068;50.986;4.564;2023-01-08T15:34:32;2.67;;;0.55;;
44348;SDS011;30068;50.986;4.564;2023-01-08T15:36:59;2.85;;;0.68;;
44348;SDS011;30068;50.986;4.564;2023-01-08T15:39:24;4.47;;;0.55;;
44348;SDS011;30068;50.986;4.564;2023-01-08T15:41:49;2.53;;;0.60;;
44348;SDS011;30068;50.986;4.564;2023-01-08T15:44:33;5.38;;;1.27;;
44348;SDS011;30068;50.986;4.564;2023-01-08T15:46:58;9.25;;;0.95;;
44348;SDS011;30068;50.986;4.564;2023-01-08T15:49:23;8.02;;;1.42;;
44348;SDS011;30068;50.986;4.564;2023-01-08T15:51:49;4.30;;;0.82;;
44348;SDS011;30068;50.986;4.564;2023-01-08T15:54:16;7.88;;;1.33;;
44348;SDS011;30068;50.986;4.564;2023-01-08T15:56:43;4.35;;;0.85;;
44348;SDS011;30068;50.986;4.564;2023-01-08T15:59:08;3.47;;;0.80;;
44348;SDS011;30068;50.986;4.564;2023-01-08T16:01:33;4.47;;;0.70;;
44348;SDS011;30068;50.986;4.564;2023-01-08T16:03:59;6.63;;;0.80;;
44348;SDS011;30068;50.986;4.564;2023-01-08T16:06:24;4.45;;;0.70;;
44348;SDS011;30068;50.986;4.564;2023-01-08T16:08:50;6.35;;;0.80;;
44348;SDS011;30068;50.986;4.564;2023-01-08T16:11:16;3.80;;;0.80;;
44348;SDS011;30068;50.986;4.564;2023-01-08T16:13:42;3.38;;;0.70;;
44348;SDS011;30068;50.986;4.564;2023-01-08T16:16:08;5.95;;;0.77;;
44348;SDS011;30068;50.986;4.564;2023-01-08T16:18:34;4.30;;;0.57;;
44348;SDS011;30068;50.986;4.564;2023-01-08T16:21:03;4.00;;;0.82;;
44348;SDS011;30068;50.986;4.564;2023-01-08T16:23:29;2.88;;;0.68;;
44348;SDS011;30068;50.986;4.564;2023-01-08T16:25:56;5.05;;;0.80;;
44348;SDS011;30068;50.986;4.564;2023-01-08T16:28:22;3.92;;;0.70;;